Time;durP1;ratioP1;P1;durP2;ratioP2;P2;SDS_P1;SDS_P2;PMS_P1;PMS_P2;Temp;Humidity;BMP_temperature;BMP_pressure;BME280_temperature;BME280_humidity;BME280_pressure;Samples;Min_cycle;Max_cycle;Signal;HPM_P1;HPM_P2
2021/11/15 00:02:16;;;;;;;0.40;0.40;;;;;20.80;100368.00;;;;5109573;28;20114;-75
2021/11/15 00:04:47;;;;;;;1.20;0.40;;;;;20.80;100388.00;;;;5109244;28;20863;-75
2021/11/15 00:07:16;;;;;;;0.40;0.40;;;;;20.70;100377.00;;;;5109291;28;20036;-75
2021/11/15 00:09:46;;;;;;;0.10;0.10;;;;;20.70;100351.00;;;;5109158;28;20509;-75
2021/11/15 00:12:17;;;;;;;0.00;0.00;;;;;20.50;100378.00;;;;5108937;28;20462;-75
2021/11/15 00:14:46;;;;;;;0.50;0.30;;;;;20.50;100351.00;;;;5109288;28;20116;-75
2021/11/15 00:17:16;;;;;;;12.15;0.68;;;;;20.50;100376.00;;;;5108961;28;20422;-75
2021/11/15 00:19:45;;;;;;;1.58;0.63;;;;;20.40;100363.00;;;;5109273;28;20051;-74
2021/11/15 00:22:17;;;;;;;0.00;0.00;;;;;20.40;100377.00;;;;5109411;28;20047;-75
2021/11/15 00:24:46;;;;;;;0.10;0.10;;;;;20.30;100384.00;;;;5109213;28;20050;-75
2021/11/15 00:27:15;;;;;;;8.23;2.45;;;;;20.30;100368.00;;;;5108898;28;20067;-76
2021/11/15 00:29:45;;;;;;;0.32;0.32;;;;;20.30;100380.00;;;;5108627;28;20048;-75
2021/11/15 00:32:16;;;;;;;0.05;0.05;;;;;20.20;100377.00;;;;5108570;28;20048;-75
2021/11/15 00:34:45;;;;;;;0.30;0.30;;;;;20.20;100380.00;;;;5108332;28;20040;-75
2021/11/15 00:37:14;;;;;;;0.00;0.00;;;;;20.20;100370.00;;;;5108807;28;20052;-75
2021/11/15 00:39:44;;;;;;;0.00;0.00;;;;;20.10;100362.00;;;;5108967;28;20055;-75
2021/11/15 00:42:14;;;;;;;0.15;0.15;;;;;20.00;100371.00;;;;5108133;28;20044;-75
2021/11/15 00:44:45;;;;;;;3.03;1.50;;;;;20.10;100351.00;;;;5108873;28;20048;-75
2021/11/15 00:47:15;;;;;;;;;;;;;20.10;100378.00;;;;5108839;28;20039;-75
2021/11/15 00:49:45;;;;;;;3.10;0.75;;;;;20.10;100377.00;;;;5108862;28;19965;-75
2021/11/15 00:52:17;;;;;;;0.10;0.10;;;;;20.10;100367.00;;;;5108889;28;20054;-75
2021/11/15 00:54:49;;;;;;;0.00;0.00;;;;;20.00;100372.00;;;;5108657;28;20042;-75
2021/11/15 00:57:19;;;;;;;0.00;0.00;;;;;19.90;100366.00;;;;5107777;28;20131;-75
2021/11/15 00:59:48;;;;;;;0.00;0.00;;;;;19.90;100387.00;;;;5107892;28;20047;-74
2021/11/15 01:02:19;;;;;;;0.00;0.00;;;;;19.80;100352.00;;;;5108210;28;20047;-75
2021/11/15 01:04:50;;;;;;;0.00;0.00;;;;;19.70;100373.00;;;;5107556;28;20032;-75
2021/11/15 01:07:19;;;;;;;0.00;0.00;;;;;19.60;100369.00;;;;5108491;28;20039;-76
2021/11/15 01:09:49;;;;;;;0.10;0.10;;;;;19.60;100355.00;;;;5104478;28;20418;-75
2021/11/15 01:12:19;;;;;;;0.00;0.00;;;;;19.60;100355.00;;;;5092698;28;20063;-74
2021/11/15 01:14:49;;;;;;;0.00;0.00;;;;;19.50;100365.00;;;;5087745;28;20052;-75
2021/11/15 01:17:18;;;;;;;0.47;0.47;;;;;19.50;100354.00;;;;5087885;28;20052;-74
2021/11/15 01:19:48;;;;;;;0.60;0.15;;;;;19.50;100354.00;;;;5087749;28;20499;-74
2021/11/15 01:22:18;;;;;;;0.28;0.28;;;;;19.40;100351.00;;;;5087520;28;20075;-75
2021/11/15 01:24:47;;;;;;;0.00;0.00;;;;;19.30;100354.00;;;;5086906;28;20052;-75
2021/11/15 01:27:17;;;;;;;10.98;0.80;;;;;19.30;100348.00;;;;5087442;28;20036;-74
2021/11/15 01:29:46;;;;;;;0.00;0.00;;;;;19.30;100347.00;;;;5088034;28;20044;-75
2021/11/15 01:32:16;;;;;;;1.65;0.38;;;;;19.20;100352.00;;;;5091111;28;20517;-74
2021/11/15 01:34:46;;;;;;;5.53;1.30;;;;;19.20;100350.00;;;;5096690;28;20054;-75
2021/11/15 01:37:15;;;;;;;0.80;0.63;;;;;19.20;100358.00;;;;5095557;28;20044;-75
2021/11/15 01:39:45;;;;;;;0.20;0.20;;;;;19.20;100350.00;;;;5096825;28;20044;-76
2021/11/15 01:42:15;;;;;;;0.43;0.43;;;;;19.20;100350.00;;;;5097555;28;20044;-76
2021/11/15 01:44:45;;;;;;;0.00;0.00;;;;;19.20;100351.00;;;;5081240;28;20047;-74
2021/11/15 01:47:14;;;;;;;0.00;0.00;;;;;19.20;100343.00;;;;5107229;28;20051;-75
2021/11/15 01:49:44;;;;;;;0.10;0.10;;;;;19.20;100342.00;;;;5107125;28;20043;-75
2021/11/15 01:52:15;;;;;;;0.55;0.45;;;;;19.30;100326.00;;;;5107465;28;20059;-75
2021/11/15 01:54:45;;;;;;;8.30;0.77;;;;;19.30;100343.00;;;;5107746;28;20092;-76
2021/11/15 01:57:15;;;;;;;4.47;1.58;;;;;19.30;100330.00;;;;5107210;28;20281;-75
2021/11/15 01:59:46;;;;;;;1.85;0.98;;;;;19.30;100325.00;;;;5107671;28;20047;-75
2021/11/15 02:02:18;;;;;;;0.57;0.55;;;;;19.30;100339.00;;;;5106671;28;20044;-74
2021/11/15 02:04:48;;;;;;;0.10;0.10;;;;;19.40;100315.00;;;;5107177;28;20115;-75
2021/11/15 02:07:18;;;;;;;4.13;1.23;;;;;19.50;100330.00;;;;5107012;28;20448;-76
2021/11/15 02:09:47;;;;;;;1.27;1.17;;;;;19.50;100313.00;;;;5106848;28;20047;-75
2021/11/15 02:12:18;;;;;;;0.20;0.20;;;;;19.60;100310.00;;;;5107161;28;20214;-76
2021/11/15 02:14:47;;;;;;;0.10;0.10;;;;;19.60;100310.00;;;;5106665;28;20510;-76
2021/11/15 02:17:17;;;;;;;16.77;0.45;;;;;19.60;100320.00;;;;5106743;28;20051;-76
2021/11/15 02:19:47;;;;;;;0.20;0.20;;;;;19.60;100319.00;;;;5106801;28;20044;-75
2021/11/15 02:22:20;;;;;;;0.00;0.00;;;;;19.60;100318.00;;;;5106851;28;20510;-76
2021/11/15 02:24:49;;;;;;;2.35;2.10;;;;;19.60;100314.00;;;;5107336;28;20529;-75
2021/11/15 02:27:19;;;;;;;0.32;0.32;;;;;19.70;100309.00;;;;5106799;28;20052;-75
2021/11/15 02:29:48;;;;;;;0.22;0.22;;;;;19.60;100323.00;;;;5107007;28;20051;-75
2021/11/15 02:32:17;;;;;;;0.47;0.47;;;;;19.70;100330.00;;;;5106987;28;20042;-75
2021/11/15 02:34:47;;;;;;;0.50;0.38;;;;;19.60;100309.00;;;;5106671;28;20043;-76
2021/11/15 02:37:17;;;;;;;0.17;0.17;;;;;19.60;100295.00;;;;5107066;28;20503;-76
2021/11/15 02:39:46;;;;;;;0.00;0.00;;;;;19.60;100308.00;;;;5106622;28;20071;-76
2021/11/15 02:42:17;;;;;;;0.32;0.32;;;;;19.50;100313.00;;;;5107386;28;20491;-75
2021/11/15 02:44:46;;;;;;;0.52;0.52;;;;;19.50;100325.00;;;;5107127;28;20043;-76
2021/11/15 02:47:19;;;;;;;0.00;0.00;;;;;19.50;100313.00;;;;5107183;28;20043;-75
2021/11/15 02:49:49;;;;;;;0.65;0.65;;;;;19.60;100313.00;;;;5106572;28;20571;-75
2021/11/15 02:52:19;;;;;;;0.22;0.22;;;;;19.60;100332.00;;;;5106771;28;20063;-76
2021/11/15 02:54:49;;;;;;;1.27;1.15;;;;;19.60;100312.00;;;;5106760;28;20399;-75
2021/11/15 02:57:21;;;;;;;0.00;0.00;;;;;19.70;100318.00;;;;5106651;28;20108;-75
2021/11/15 02:59:50;;;;;;;0.30;0.30;;;;;19.80;100324.00;;;;5106703;28;20047;-75
2021/11/15 03:02:23;;;;;;;0.30;0.30;;;;;19.80;100354.00;;;;5106377;28;20781;-75
2021/11/15 03:04:53;;;;;;;0.30;0.30;;;;;19.70;100320.00;;;;5106757;28;20692;-75
2021/11/15 03:07:23;;;;;;;0.13;0.13;;;;;19.70;100319.00;;;;5106897;28;20056;-75
2021/11/15 03:09:52;;;;;;;2.45;1.20;;;;;19.80;100332.00;;;;5106361;28;20467;-75
2021/11/15 03:12:31;;;;;;;0.05;0.05;;;;;19.80;100335.00;;;;5106480;28;20048;-75
2021/11/15 03:15:02;;;;;;;2.75;1.58;;;;;19.80;100333.00;;;;5106309;28;20128;-75
2021/11/15 03:17:32;;;;;;;0.10;0.10;;;;;19.80;100346.00;;;;5106316;28;20134;-75
2021/11/15 03:20:01;;;;;;;0.00;0.00;;;;;19.70;100335.00;;;;5107076;28;20047;-75
2021/11/15 03:22:30;;;;;;;0.00;0.00;;;;;19.80;100345.00;;;;5106892;28;20518;-76
2021/11/15 03:25:00;;;;;;;0.30;0.30;;;;;19.90;100347.00;;;;5106164;28;20076;-75
2021/11/15 03:27:34;;;;;;;0.00;0.00;;;;;19.90;100348.00;;;;5107287;28;20043;-76
2021/11/15 03:30:06;;;;;;;0.00;0.00;;;;;19.80;100345.00;;;;5110948;28;20406;-75
2021/11/15 03:32:35;;;;;;;;;;;;;19.80;100344.00;;;;5110968;28;20040;-75
2021/11/15 03:35:05;;;;;;;0.15;0.15;;;;;19.80;100333.00;;;;5109899;28;20394;-76
2021/11/15 03:37:34;;;;;;;0.08;0.08;;;;;19.80;100346.00;;;;5110085;28;20059;-75
2021/11/15 03:40:08;;;;;;;0.52;0.40;;;;;19.80;100354.00;;;;5109561;28;20055;-75
2021/11/15 03:42:38;;;;;;;4.28;2.45;;;;;19.80;100348.00;;;;5109957;28;20410;-76
2021/11/15 03:45:08;;;;;;;0.15;0.08;;;;;19.90;100357.00;;;;5109797;28;20039;-75
2021/11/15 03:47:38;;;;;;;0.10;0.10;;;;;19.90;100336.00;;;;5110428;28;20048;-75
2021/11/15 03:50:09;;;;;;;0.25;0.25;;;;;19.80;100350.00;;;;5110157;28;20088;-75
2021/11/15 03:52:40;;;;;;;15.90;1.92;;;;;19.80;100351.00;;;;5109989;28;20077;-75
2021/11/15 03:55:12;;;;;;;0.00;0.00;;;;;19.80;100358.00;;;;5091652;28;20083;-76
2021/11/15 03:57:43;;;;;;;0.80;0.80;;;;;19.80;100356.00;;;;5109842;28;20050;-75
2021/11/15 04:00:18;;;;;;;0.00;0.00;;;;;20.00;100368.00;;;;5109886;28;20044;-75
2021/11/15 04:02:51;;;;;;;0.00;0.00;;;;;20.00;100372.00;;;;5109314;28;20054;-76
2021/11/15 04:05:32;;;;;;;0.05;0.05;;;;;20.00;100371.00;;;;5109400;28;20047;-76
2021/11/15 04:08:07;;;;;;;0.38;0.13;;;;;20.00;100363.00;;;;5109644;28;20043;-75
2021/11/15 04:10:42;;;;;;;0.00;0.00;;;;;19.90;100364.00;;;;5109928;28;20048;-75
2021/11/15 04:13:21;;;;;;;0.00;0.00;;;;;19.80;100360.00;;;;5109418;28;20071;-76
2021/11/15 04:15:55;;;;;;;0.00;0.00;;;;;19.80;100359.00;;;;5110134;28;20040;-76
2021/11/15 04:18:30;;;;;;;0.00;0.00;;;;;19.70;100379.00;;;;5109265;28;20452;-75
2021/11/15 04:21:04;;;;;;;0.00;0.00;;;;;19.70;100382.00;;;;5109183;28;20200;-76
2021/11/15 04:23:35;;;;;;;0.00;0.00;;;;;19.70;100374.00;;;;5091170;28;20077;-76
2021/11/15 04:26:05;;;;;;;0.28;0.28;;;;;19.70;100391.00;;;;5108780;28;20653;-75
2021/11/15 04:28:37;;;;;;;0.10;0.10;;;;;19.60;100364.00;;;;5109238;28;20044;-75
2021/11/15 04:31:07;;;;;;;0.00;0.00;;;;;19.60;100390.00;;;;5109138;28;20043;-75
2021/11/15 04:33:37;;;;;;;0.00;0.00;;;;;19.50;100385.00;;;;5109129;28;20043;-76
2021/11/15 04:36:07;;;;;;;0.00;0.00;;;;;19.50;100372.00;;;;5109091;28;20404;-76
2021/11/15 04:38:36;;;;;;;0.20;0.20;;;;;19.40;100362.00;;;;5108083;28;20054;-75
2021/11/15 04:41:06;;;;;;;0.00;0.00;;;;;19.40;100379.00;;;;5108243;28;20048;-76
2021/11/15 04:43:35;;;;;;;0.00;0.00;;;;;19.40;100355.00;;;;5108976;28;20536;-75
2021/11/15 04:46:05;;;;;;;0.00;0.00;;;;;19.40;100360.00;;;;5108439;28;20047;-76
2021/11/15 04:48:35;;;;;;;0.03;0.03;;;;;19.30;100342.00;;;;5108608;28;20549;-76
2021/11/15 04:51:04;;;;;;;0.10;0.10;;;;;19.20;100360.00;;;;5108533;28;20066;-76
2021/11/15 04:53:33;;;;;;;0.00;0.00;;;;;19.10;100353.00;;;;5108466;28;20052;-75
2021/11/15 04:56:03;;;;;;;0.00;0.00;;;;;19.10;100353.00;;;;5108671;28;20059;-76
2021/11/15 04:58:32;;;;;;;0.00;0.00;;;;;19.10;100353.00;;;;5108461;28;20055;-75
2021/11/15 05:01:03;;;;;;;0.13;0.10;;;;;19.10;100353.00;;;;5109007;28;20047;-75
2021/11/15 05:03:37;;;;;;;0.10;0.10;;;;;19.10;100361.00;;;;5108790;28;20059;-76
2021/11/15 05:06:07;;;;;;;0.00;0.00;;;;;19.10;100351.00;;;;5108010;28;20039;-76
2021/11/15 05:08:37;;;;;;;0.00;0.00;;;;;19.10;100361.00;;;;5108102;28;20043;-75
2021/11/15 05:11:06;;;;;;;0.00;0.00;;;;;19.00;100356.00;;;;5107775;28;20530;-75
2021/11/15 05:13:36;;;;;;;0.00;0.00;;;;;19.00;100342.00;;;;5108050;28;20484;-76
2021/11/15 05:16:05;;;;;;;0.00;0.00;;;;;19.10;100343.00;;;;5107971;28;20032;-75
2021/11/15 05:18:40;;;;;;;0.20;0.10;;;;;19.10;100355.00;;;;5108169;28;20517;-76
2021/11/15 05:21:09;;;;;;;0.00;0.00;;;;;19.10;100333.00;;;;5108386;28;20047;-76
2021/11/15 05:23:40;;;;;;;0.00;0.00;;;;;19.00;100336.00;;;;5108423;28;20040;-76
2021/11/15 05:26:10;;;;;;;0.00;0.00;;;;;19.10;100354.00;;;;5107965;28;20043;-75
2021/11/15 05:28:39;;;;;;;0.00;0.00;;;;;19.00;100347.00;;;;5107501;28;20066;-75
2021/11/15 05:31:08;;;;;;;0.00;0.00;;;;;19.00;100341.00;;;;5108010;28;20453;-76
2021/11/15 05:33:38;;;;;;;0.00;0.00;;;;;19.00;100332.00;;;;5107685;28;20047;-75
2021/11/15 05:36:08;;;;;;;0.00;0.00;;;;;19.00;100330.00;;;;5107623;28;20083;-76
2021/11/15 05:38:37;;;;;;;2.13;0.85;;;;;19.00;100326.00;;;;5107649;28;20051;-76
2021/11/15 05:41:06;;;;;;;0.10;0.10;;;;;18.90;100336.00;;;;5107666;28;20632;-76
2021/11/15 05:43:36;;;;;;;1.35;0.65;;;;;18.90;100334.00;;;;5107538;28;20051;-76
2021/11/15 05:46:09;;;;;;;0.00;0.00;;;;;18.90;100344.00;;;;5090549;28;20036;-76
2021/11/15 05:48:38;;;;;;;0.57;0.57;;;;;18.90;100345.00;;;;5107734;28;20517;-75
2021/11/15 05:51:08;;;;;;;0.00;0.00;;;;;18.90;100332.00;;;;5089489;28;20105;-76
2021/11/15 05:53:38;;;;;;;0.00;0.00;;;;;18.90;100349.00;;;;5107507;28;20050;-75
2021/11/15 05:56:08;;;;;;;0.57;0.47;;;;;18.90;100344.00;;;;5107634;28;20043;-76
2021/11/15 05:58:37;;;;;;;0.00;0.00;;;;;18.90;100341.00;;;;5106880;28;20508;-76
2021/11/15 06:01:07;;;;;;;2.13;0.75;;;;;18.90;100325.00;;;;5107671;28;20047;-76
2021/11/15 06:03:36;;;;;;;0.00;0.00;;;;;18.90;100344.00;;;;5107619;28;20051;-75
2021/11/15 06:06:06;;;;;;;0.63;0.50;;;;;18.90;100336.00;;;;5107245;28;20051;-76
2021/11/15 06:08:35;;;;;;;0.00;0.00;;;;;18.90;100321.00;;;;5107917;28;20039;-75
2021/11/15 06:11:05;;;;;;;0.00;0.00;;;;;18.80;100318.00;;;;5107840;28;20043;-75
2021/11/15 06:13:34;;;;;;;0.00;0.00;;;;;18.80;100315.00;;;;5107014;28;20043;-75
2021/11/15 06:16:04;;;;;;;1.65;0.55;;;;;18.80;100310.00;;;;5106858;28;20048;-75
2021/11/15 06:18:34;;;;;;;0.60;0.40;;;;;18.80;100304.00;;;;5106641;28;20058;-75
2021/11/15 06:21:03;;;;;;;0.00;0.00;;;;;18.70;100300.00;;;;5107725;28;20051;-75
2021/11/15 06:23:33;;;;;;;0.00;0.00;;;;;18.70;100300.00;;;;5089409;28;20040;-76
2021/11/15 06:26:03;;;;;;;0.00;0.00;;;;;18.70;100311.00;;;;5107083;28;20461;-76
2021/11/15 06:28:32;;;;;;;0.00;0.00;;;;;18.60;100299.00;;;;5106773;28;20036;-75
2021/11/15 06:31:02;;;;;;;0.00;0.00;;;;;18.70;100289.00;;;;5106656;28;20112;-75
2021/11/15 06:33:32;;;;;;;0.00;0.00;;;;;18.60;100299.00;;;;5107448;28;21045;-76
2021/11/15 06:36:01;;;;;;;0.00;0.00;;;;;18.60;100315.00;;;;5106837;28;20051;-75
2021/11/15 06:38:31;;;;;;;0.00;0.00;;;;;18.60;100311.00;;;;5107016;28;20043;-76
2021/11/15 06:41:00;;;;;;;0.00;0.00;;;;;18.60;100303.00;;;;5106827;28;20039;-75
2021/11/15 06:43:29;;;;;;;0.00;0.00;;;;;18.50;100296.00;;;;5106282;28;20741;-76
2021/11/15 06:45:59;;;;;;;0.00;0.00;;;;;18.50;100296.00;;;;5106711;28;20051;-76
2021/11/15 06:48:30;;;;;;;0.00;0.00;;;;;18.50;100288.00;;;;5107095;28;20137;-76
2021/11/15 06:50:59;;;;;;;;;;;;;18.50;100308.00;;;;5107536;28;20124;-76
2021/11/15 06:53:31;;;;;;;0.00;0.00;;;;;18.40;100306.00;;;;5106727;28;20004;-75
2021/11/15 06:56:02;;;;;;;0.00;0.00;;;;;18.40;100302.00;;;;5106923;28;20036;-76
2021/11/15 06:58:32;;;;;;;0.03;0.03;;;;;18.50;100319.00;;;;5107089;28;20028;-75
2021/11/15 07:01:03;;;;;;;0.00;0.00;;;;;18.50;100305.00;;;;5106864;28;20066;-75
2021/11/15 07:03:33;;;;;;;0.10;0.10;;;;;18.50;100321.00;;;;5109758;28;20426;-75
2021/11/15 07:06:03;;;;;;;0.05;0.05;;;;;18.50;100310.00;;;;5111009;28;20487;-76
2021/11/15 07:08:33;;;;;;;0.05;0.05;;;;;18.40;100316.00;;;;5110273;28;20048;-75
2021/11/15 07:11:02;;;;;;;10.50;2.00;;;;;18.40;100302.00;;;;5110762;28;20043;-75
2021/11/15 07:13:32;;;;;;;0.00;0.00;;;;;18.30;100316.00;;;;5110663;28;20043;-76
2021/11/15 07:16:02;;;;;;;0.00;0.00;;;;;18.30;100303.00;;;;5110469;28;20051;-76
2021/11/15 07:18:32;;;;;;;0.00;0.00;;;;;18.20;100321.00;;;;5111258;28;20062;-75
2021/11/15 07:21:04;;;;;;;0.00;0.00;;;;;18.20;100322.00;;;;5110185;28;20061;-75
2021/11/15 07:23:35;;;;;;;0.00;0.00;;;;;18.20;100316.00;;;;5110499;28;20138;-75
2021/11/15 07:26:04;;;;;;;0.00;0.00;;;;;18.20;100320.00;;;;5111242;28;20043;-76
2021/11/15 07:28:33;;;;;;;0.35;0.35;;;;;18.10;100337.00;;;;5110250;28;20426;-76
2021/11/15 07:31:03;;;;;;;0.00;0.00;;;;;18.10;100334.00;;;;5109903;28;20112;-75
2021/11/15 07:33:33;;;;;;;1.15;1.15;;;;;18.00;100334.00;;;;5110073;28;20042;-75
2021/11/15 07:36:02;;;;;;;0.10;0.10;;;;;17.90;100330.00;;;;5109896;28;20051;-76
2021/11/15 07:38:32;;;;;;;0.00;0.00;;;;;17.90;100322.00;;;;5092191;28;20075;-75
2021/11/15 07:41:02;;;;;;;0.00;0.00;;;;;17.90;100336.00;;;;5110032;28;20039;-75
2021/11/15 07:43:32;;;;;;;0.40;0.40;;;;;17.80;100335.00;;;;5110476;28;20047;-75
2021/11/15 07:46:01;;;;;;;0.10;0.10;;;;;17.70;100360.00;;;;5091745;28;20046;-76
2021/11/15 07:48:31;;;;;;;0.00;0.00;;;;;17.60;100336.00;;;;5109966;28;20050;-75
2021/11/15 07:51:01;;;;;;;0.00;0.00;;;;;17.60;100345.00;;;;5110135;28;20047;-75
2021/11/15 07:53:35;;;;;;;0.00;0.00;;;;;17.60;100358.00;;;;5091853;28;20055;-75
2021/11/15 07:56:07;;;;;;;0.00;0.00;;;;;17.50;100360.00;;;;5109815;28;20054;-75
2021/11/15 07:58:38;;;;;;;0.00;0.00;;;;;17.50;100363.00;;;;5109588;28;20043;-75
2021/11/15 08:01:07;;;;;;;0.00;0.00;;;;;17.50;100365.00;;;;5110106;28;20597;-75
2021/11/15 08:03:41;;;;;;;0.00;0.00;;;;;17.50;100342.00;;;;5109972;28;20052;-75
2021/11/15 08:06:15;;;;;;;0.00;0.00;;;;;17.50;100358.00;;;;5109886;28;20039;-75
2021/11/15 08:08:47;;;;;;;0.22;0.10;;;;;17.50;100343.00;;;;5109324;28;20044;-75
2021/11/15 08:11:18;;;;;;;0.00;0.00;;;;;17.50;100382.00;;;;5109945;28;20046;-75
2021/11/15 08:13:47;;;;;;;1.30;0.57;;;;;17.50;100376.00;;;;5109210;28;20392;-75
2021/11/15 08:16:17;;;;;;;0.00;0.00;;;;;17.40;100373.00;;;;5109658;28;20089;-76
2021/11/15 08:18:47;;;;;;;0.10;0.10;;;;;17.50;100357.00;;;;5108411;28;20455;-75
2021/11/15 08:21:21;;;;;;;5.30;4.20;;;;;17.50;100384.00;;;;5109248;28;20054;-75
2021/11/15 08:23:53;;;;;;;0.00;0.00;;;;;17.50;100391.00;;;;5109692;28;20045;-75
2021/11/15 08:26:47;;;;;;;0.00;0.00;;;;;17.60;100400.00;;;;5109530;28;20084;-76
2021/11/15 08:29:20;;;;;;;0.00;0.00;;;;;17.60;100402.00;;;;5109366;28;20074;-75
2021/11/15 08:31:51;;;;;;;0.10;0.10;;;;;17.60;100386.00;;;;5108889;28;20039;-76
2021/11/15 08:34:21;;;;;;;0.03;0.03;;;;;17.70;100387.00;;;;5109137;28;20058;-76
2021/11/15 08:36:51;;;;;;;0.05;0.05;;;;;17.70;100374.00;;;;5091089;28;20047;-75
2021/11/15 08:39:23;;;;;;;0.00;0.00;;;;;17.80;100383.00;;;;5074764;28;20134;-76
2021/11/15 08:41:56;;;;;;;0.00;0.00;;;;;17.90;100379.00;;;;5108581;28;20046;-75
2021/11/15 08:44:27;;;;;;;0.00;0.00;;;;;18.00;100404.00;;;;5109323;28;20546;-76
2021/11/15 08:46:58;;;;;;;0.00;0.00;;;;;18.10;100410.00;;;;5108890;28;20058;-75
2021/11/15 08:49:33;;;;;;;0.00;0.00;;;;;18.20;100413.00;;;;5109035;28;20032;-76
2021/11/15 08:52:05;;;;;;;0.43;0.38;;;;;18.30;100395.00;;;;5108912;28;20457;-76
2021/11/15 08:54:36;;;;;;;0.00;0.00;;;;;18.40;100407.00;;;;5108245;28;20044;-76
2021/11/15 08:57:07;;;;;;;0.00;0.00;;;;;18.50;100397.00;;;;5108842;28;20520;-76
2021/11/15 08:59:43;;;;;;;0.00;0.00;;;;;18.60;100403.00;;;;5108613;28;20058;-76
2021/11/15 09:02:13;;;;;;;0.82;0.82;;;;;18.60;100384.00;;;;5108528;28;20108;-76
2021/11/15 09:04:46;;;;;;;0.10;0.10;;;;;18.70;100381.00;;;;5108730;28;20051;-75
2021/11/15 09:07:15;;;;;;;0.43;0.43;;;;;18.70;100382.00;;;;5090043;28;20051;-75
2021/11/15 09:09:45;;;;;;;2.95;0.85;;;;;18.80;100369.00;;;;5108029;28;20047;-75
2021/11/15 09:12:16;;;;;;;1.45;0.45;;;;;18.90;100365.00;;;;5107878;28;20050;-76
2021/11/15 09:14:46;;;;;;;0.00;0.00;;;;;19.00;100357.00;;;;5108112;28;20043;-75
2021/11/15 09:17:16;;;;;;;1.02;0.93;;;;;19.10;100369.00;;;;5108299;28;20069;-75
2021/11/15 09:19:45;;;;;;;0.00;0.00;;;;;19.00;100351.00;;;;5107590;28;20621;-76
2021/11/15 09:22:17;;;;;;;0.00;0.00;;;;;19.00;100337.00;;;;5108566;28;20043;-75
2021/11/15 09:24:48;;;;;;;3.10;1.07;;;;;19.10;100351.00;;;;5108193;28;20039;-76
2021/11/15 09:27:19;;;;;;;0.20;0.20;;;;;19.10;100338.00;;;;5108184;28;20298;-76
2021/11/15 09:29:50;;;;;;;0.00;0.00;;;;;19.10;100361.00;;;;5108024;28;20047;-75
2021/11/15 09:32:21;;;;;;;0.00;0.00;;;;;19.20;100367.00;;;;5108565;28;20127;-76
2021/11/15 09:34:51;;;;;;;0.00;0.00;;;;;19.20;100381.00;;;;5108162;28;20107;-76
2021/11/15 09:37:21;;;;;;;0.10;0.10;;;;;19.20;100417.00;;;;5107338;28;20290;-76
2021/11/15 09:39:51;;;;;;;0.00;0.00;;;;;19.30;100412.00;;;;5108101;28;20134;-76
2021/11/15 09:42:20;;;;;;;0.00;0.00;;;;;19.40;100424.00;;;;5108382;28;20085;-76
2021/11/15 09:44:50;;;;;;;0.00;0.00;;;;;19.50;100413.00;;;;5107458;28;20126;-76
2021/11/15 09:47:20;;;;;;;0.00;0.00;;;;;19.60;100409.00;;;;5107790;28;20046;-76
2021/11/15 09:49:50;;;;;;;0.00;0.00;;;;;19.90;100429.00;;;;5107705;28;20043;-76
2021/11/15 09:52:19;;;;;;;0.00;0.00;;;;;20.10;100421.00;;;;5089930;28;20043;-76
2021/11/15 09:54:49;;;;;;;0.00;0.00;;;;;20.20;100439.00;;;;5089673;28;20048;-76
2021/11/15 09:57:40;;;;;;;0.00;0.00;;;;;20.30;100428.00;;;;5107531;28;20039;-76
2021/11/15 10:00:14;;;;;;;0.28;0.28;;;;;20.20;100434.00;;;;5107790;28;20074;-76
2021/11/15 10:02:44;;;;;;;0.00;0.00;;;;;20.20;100417.00;;;;5107314;28;20047;-76
2021/11/15 10:05:14;;;;;;;0.00;0.00;;;;;20.30;100433.00;;;;5107524;28;20047;-76
2021/11/15 10:07:48;;;;;;;2.25;1.15;;;;;20.40;100461.00;;;;5107244;28;20040;-76
2021/11/15 10:10:39;;;;;;;0.00;0.00;;;;;20.60;100436.00;;;;5107867;28;20065;-76
2021/11/15 10:13:19;;;;;;;0.63;0.63;;;;;20.70;100429.00;;;;5107282;28;20388;-77
2021/11/15 10:16:12;;;;;;;0.35;0.35;;;;;20.90;100436.00;;;;5107125;28;20043;-76
2021/11/15 10:18:57;;;;;;;0.10;0.10;;;;;21.20;100436.00;;;;5107119;28;20054;-76
2021/11/15 10:21:47;;;;;;;1.35;0.55;;;;;21.50;100434.00;;;;5072586;28;20094;-76
2021/11/15 10:24:21;;;;;;;1.50;0.60;;;;;21.90;100435.00;;;;5108013;28;20123;-76
2021/11/15 10:26:56;;;;;;;0.00;0.00;;;;;22.30;100420.00;;;;5107486;28;20126;-76
2021/11/15 10:29:32;;;;;;;1.08;0.75;;;;;26.00;100301.00;;;;5107073;28;20511;-76
2021/11/15 10:32:13;;;;;;;0.10;0.10;;;;;23.80;100412.00;;;;5106929;28;20418;-76
2021/11/15 10:34:53;;;;;;;0.00;0.00;;;;;23.30;100428.00;;;;5107265;28;20043;-77
2021/11/15 10:37:27;;;;;;;1.38;0.80;;;;;23.10;100439.00;;;;5108288;28;20058;-76
2021/11/15 10:40:07;;;;;;;0.50;0.50;;;;;22.80;100441.00;;;;5111568;28;20498;-76
2021/11/15 10:42:38;;;;;;;1.55;1.45;;;;;22.90;100449.00;;;;5111505;28;20117;-76
2021/11/15 10:45:18;;;;;;;0.00;0.00;;;;;23.10;100446.00;;;;5110490;28;20491;-76
2021/11/15 10:47:57;;;;;;;1.80;1.60;;;;;23.60;100430.00;;;;5111780;28;20054;-74
2021/11/15 10:50:45;;;;;;;4.65;2.10;;;;;24.10;100402.00;;;;5111209;28;20054;-74
2021/11/15 10:53:28;;;;;;;0.00;0.00;;;;;23.90;100434.00;;;;5110819;28;20054;-77
2021/11/15 10:56:19;;;;;;;0.25;0.25;;;;;23.90;100434.00;;;;5110671;28;20059;-76
2021/11/15 10:58:50;;;;;;;0.17;0.10;;;;;24.10;100450.00;;;;5110526;28;20088;-76
2021/11/15 11:01:21;;;;;;;0.10;0.10;;;;;23.90;100429.00;;;;5111023;28;20441;-76
2021/11/15 11:04:10;;;;;;;0.00;0.00;;;;;24.00;100438.00;;;;5110898;28;20119;-77
2021/11/15 11:06:56;;;;;;;0.00;0.00;;;;;24.30;100443.00;;;;5110698;28;20036;-76
2021/11/15 11:09:44;;;;;;;0.20;0.20;;;;;24.30;100431.00;;;;5110725;28;20054;-74
2021/11/15 11:12:21;;;;;;;0.40;0.25;;;;;24.40;100419.00;;;;5110302;28;20188;-74
2021/11/15 11:14:52;;;;;;;0.00;0.00;;;;;24.40;100455.00;;;;5110642;28;20429;-77
2021/11/15 11:17:22;;;;;;;0.00;0.00;;;;;24.20;100442.00;;;;5110740;28;20055;-76
2021/11/15 11:20:52;;;;;;;2.20;1.55;;;;;24.50;100438.00;;;;5110697;28;20054;-76
2021/11/15 11:25:48;;;;;;;3.05;0.50;;;;;24.40;100438.00;;;;5110256;28;20476;-76
2021/11/15 11:28:36;;;;;;;0.30;0.30;;;;;24.40;100456.00;;;;5109997;28;20046;-77
2021/11/15 11:31:09;;;;;;;0.52;0.40;;;;;24.20;100455.00;;;;5110366;28;20043;-77
2021/11/15 11:33:39;;;;;;;0.20;0.20;;;;;24.10;100458.00;;;;5110589;28;20444;-77
2021/11/15 11:36:10;;;;;;;4.07;2.80;;;;;24.10;100460.00;;;;5110046;28;20387;-77
2021/11/15 11:38:42;;;;;;;0.35;0.35;;;;;24.40;100448.00;;;;5109771;28;20036;-74
2021/11/15 11:41:12;;;;;;;0.00;0.00;;;;;24.70;100423.00;;;;5091958;28;20522;-76
2021/11/15 11:43:43;;;;;;;0.00;0.00;;;;;25.00;100430.00;;;;5109799;28;20566;-76
2021/11/15 11:46:23;;;;;;;0.00;0.00;;;;;25.30;100420.00;;;;5092622;28;20054;-76
2021/11/15 11:48:55;;;;;;;0.20;0.20;;;;;25.40;100439.00;;;;5109779;28;20032;-77
2021/11/15 11:51:29;;;;;;;0.00;0.00;;;;;25.40;100434.00;;;;5109979;28;20048;-74
2021/11/15 11:54:11;;;;;;;0.00;0.00;;;;;25.50;100452.00;;;;5091142;28;20047;-73
2021/11/15 11:56:58;;;;;;;0.10;0.10;;;;;25.50;100445.00;;;;5110230;28;20081;-74
2021/11/15 11:59:28;;;;;;;0.00;0.00;;;;;25.40;100452.00;;;;5108540;28;20036;-73
2021/11/15 12:13:24;;;;;;;0.00;0.00;;;;;26.10;100455.00;;;;5144808;27;20437;-74
2021/11/15 12:16:02;;;;;;;0.00;0.00;;;;;26.40;100433.00;;;;5124258;27;20039;-76
2021/11/15 12:18:37;;;;;;;0.00;0.00;;;;;26.70;100439.00;;;;5122789;28;20063;-74
2021/11/15 12:21:21;;;;;;;0.00;0.00;;;;;27.60;100349.00;;;;5123592;28;20051;-73
2021/11/15 12:23:53;;;;;;;0.00;0.00;;;;;28.80;100417.00;;;;5122462;28;20454;-75
2021/11/15 12:26:37;;;;;;;0.00;0.00;;;;;29.00;100418.00;;;;5121892;28;20051;-75
2021/11/15 12:29:29;;;;;;;0.05;0.05;;;;;29.60;100373.00;;;;5123304;27;20513;-74
2021/11/15 12:32:04;;;;;;;0.17;0.17;;;;;30.00;100341.00;;;;5123970;27;20058;-74
2021/11/15 12:34:56;;;;;;;0.00;0.00;;;;;31.60;100359.00;;;;5124050;27;20047;-75
2021/11/15 12:37:50;;;;;;;0.10;0.10;;;;;32.00;100381.00;;;;5124139;27;20046;-76
2021/11/15 12:40:37;;;;;;;0.00;0.00;;;;;31.00;100391.00;;;;5124120;27;20039;-75
2021/11/15 12:43:17;;;;;;;0.05;0.03;;;;;30.40;100382.00;;;;5124202;27;20122;-74
2021/11/15 12:45:51;;;;;;;0.17;0.17;;;;;30.80;100332.00;;;;5123276;27;20487;-75
2021/11/15 12:48:41;;;;;;;0.00;0.00;;;;;32.60;100379.00;;;;5123856;28;20173;-75